Time;durP1;ratioP1;P1;durP2;ratioP2;P2;SDS_P1;SDS_P2;PMS_P1;PMS_P2;Temp;Humidity;BMP_temperature;BMP_pressure;BME280_temperature;BME280_humidity;BME280_pressure;Samples;Min_cycle;Max_cycle;Signal;HPM_P1;HPM_P2
2023/01/11 00:01:04;;;;;;;;;1.00;1.00;;;;;12.01;91.60;100375.69;5057872;28;45972;-68
2023/01/11 00:03:30;;;;;;;;;1.00;1.00;;;;;12.03;91.44;100382.63;5057970;28;45397;-71
2023/01/11 00:05:57;;;;;;;;;2.00;2.00;;;;;12.03;91.46;100372.06;5056658;28;45390;-70
2023/01/11 00:08:24;;;;;;;;;2.00;2.00;;;;;11.99;91.70;100371.31;5059000;27;45253;-72
2023/01/11 00:10:50;;;;;;;;;2.00;2.00;;;;;12.02;91.71;100367.75;5073596;28;47874;-72
2023/01/11 00:13:15;;;;;;;;;1.75;1.75;;;;;12.05;91.66;100377.25;5057822;28;45429;-72
2023/01/11 00:15:41;;;;;;;;;1.00;1.00;;;;;12.05;91.71;100372.84;5057346;28;45494;-70
2023/01/11 00:18:07;;;;;;;;;1.25;1.25;;;;;12.04;91.98;100370.28;5059424;28;45592;-76
2023/01/11 00:20:32;;;;;;;;;2.00;2.00;;;;;12.01;92.35;100384.47;5057873;28;45891;-74
2023/01/11 00:22:58;;;;;;;;;1.25;1.25;;;;;11.99;93.28;100376.59;5058068;28;45338;-74
2023/01/11 00:25:23;;;;;;;;;3.00;3.00;;;;;11.97;93.46;100375.00;5057516;28;45477;-77
2023/01/11 00:27:48;;;;;;;;;2.00;2.00;;;;;11.91;93.10;100365.59;5058724;28;44736;-69
2023/01/11 00:30:15;;;;;;;;;1.25;1.25;;;;;11.90;93.46;100358.59;5058435;28;46469;-73
2023/01/11 00:32:41;;;;;;;;;2.00;2.00;;;;;11.86;93.81;100361.50;5059714;28;45288;-72
2023/01/11 00:35:07;;;;;;;;;3.25;3.25;;;;;11.87;93.66;100342.94;5057694;28;45364;-72
2023/01/11 00:37:32;;;;;;;;;1.25;1.25;;;;;11.88;93.97;100354.34;5057836;28;45584;-74
2023/01/11 00:39:57;;;;;;;;;3.00;3.00;;;;;11.87;93.56;100360.56;5056789;28;46300;-67
2023/01/11 00:48:03;;;;;;;;;1.00;1.00;;;;;11.88;93.61;100342.00;5056950;28;45246;-70
2023/01/11 00:50:31;;;;;;;;;2.00;2.00;;;;;11.89;94.25;100343.72;5056841;28;47062;-69
2023/01/11 00:52:58;;;;;;;;;2.00;2.00;;;;;11.89;94.36;100333.19;5056773;28;45363;-67
2023/01/11 00:55:24;;;;;;;;;2.00;2.00;;;;;11.88;94.23;100326.19;5057129;28;45525;-67
2023/01/11 00:57:50;;;;;;;;;2.00;2.00;;;;;11.88;94.72;100334.09;5073892;28;45439;-68
2023/01/11 01:00:16;;;;;;;;;2.00;2.00;;;;;11.89;94.29;100346.34;5055780;28;48056;-67
2023/01/11 01:02:42;;;;;;;;;2.00;2.00;;;;;11.79;94.80;100324.03;5061336;28;45221;-67
2023/01/11 01:05:07;;;;;;;;;1.75;1.75;;;;;11.76;95.12;100311.88;5060835;28;45140;-68
2023/01/11 01:07:33;;;;;;;;;1.00;1.00;;;;;11.77;95.26;100321.47;5057361;28;45571;-70
2023/01/11 01:09:58;;;;;;;;;1.00;1.00;;;;;11.82;95.28;100332.66;5056444;28;46542;-71
2023/01/11 01:15:08;;;;;;;;;1.00;1.00;;;;;11.76;95.87;100311.00;5056812;28;45295;-67
2023/01/11 01:17:33;;;;;;;;;0.50;0.50;;;;;11.69;95.80;100313.09;5057833;28;45240;-71
2023/01/11 01:19:58;;;;;;;;;2.00;2.00;;;;;11.77;95.75;100325.88;5056447;28;46219;-76
2023/01/11 01:22:24;;;;;;;;;1.00;1.00;;;;;11.76;96.27;100326.81;5056366;28;63864;-71
2023/01/11 01:24:49;;;;;;;;;1.00;1.00;;;;;11.75;96.48;100323.34;5056498;28;45241;-72
2023/01/11 01:27:16;;;;;;;;;1.00;1.00;;;;;11.76;96.44;100321.53;5054614;28;45417;-74
2023/01/11 01:29:42;;;;;;;;;1.00;1.00;;;;;11.75;96.46;100317.19;5071403;28;45521;-72
2023/01/11 01:32:08;;;;;;;;;0.50;0.50;;;;;11.75;96.85;100309.28;5071747;27;45420;-71
2023/01/11 01:34:36;;;;;;;;;0.00;0.00;;;;;11.71;96.95;100302.47;5056131;28;45476;-73
2023/01/11 01:37:10;;;;;;;;;0.00;0.00;;;;;11.72;96.56;100299.78;5056397;28;45396;-72
2023/01/11 01:39:36;;;;;;;;;1.00;1.00;;;;;11.70;96.81;100301.63;5056071;28;46371;-76
2023/01/11 01:42:02;;;;;;;;;1.25;1.25;;;;;11.66;97.16;100286.88;5056562;28;45280;-67
2023/01/11 01:44:49;;;;;;;;;1.00;1.00;;;;;11.72;97.27;100296.28;5056133;28;45244;-67
2023/01/11 01:47:15;;;;;;;;;1.00;1.00;;;;;11.61;97.42;100279.22;5057089;28;45253;-66
2023/01/11 01:49:42;;;;;;;;;0.50;0.50;;;;;11.65;97.57;100283.41;5055659;28;45351;-73
2023/01/11 01:52:08;;;;;;;;;0.00;0.00;;;;;11.69;97.95;100298.13;5055867;28;45323;-75
2023/01/11 01:54:39;;;;;;;;;0.00;0.00;;;;;11.68;98.17;100292.97;5071323;27;45468;-66
2023/01/11 01:57:11;;;;;;;;;0.00;0.00;;;;;11.67;98.17;100286.81;5054300;28;45162;-67
2023/01/11 01:59:36;;;;;;;;;0.00;0.00;;;;;11.61;97.75;100279.22;5056253;28;45682;-67
2023/01/11 02:02:02;;;;;;;;;1.75;1.75;;;;;11.57;98.29;100277.66;5055749;28;45303;-68
2023/01/11 02:04:27;;;;;;;;;1.50;1.50;;;;;11.68;98.63;100292.97;5056808;28;45277;-67
2023/01/11 02:06:58;;;;;;;;;0.75;0.75;;;;;11.67;98.20;100297.34;5055790;28;45260;-69
2023/01/11 02:09:52;;;;;;;;;0.00;0.00;;;;;11.68;98.29;100295.59;5055714;28;45353;-68
2023/01/11 02:12:18;;;;;;;;;1.00;1.00;;;;;11.65;98.21;100301.84;5041313;28;45439;-68
2023/01/11 02:14:46;;;;;;;;;0.00;0.00;;;;;11.61;98.07;100289.75;5070974;28;45288;-67
2023/01/11 02:17:11;;;;;;;;;0.00;0.00;;;;;11.68;98.08;100301.69;5055759;28;45180;-69
2023/01/11 02:20:14;;;;;;;;;0.00;0.00;;;;;11.69;98.15;100300.78;5055509;28;46386;-69
2023/01/11 02:22:54;;;;;;;;;1.00;1.00;;;;;11.70;98.09;100301.63;5055645;28;45319;-66
2023/01/11 02:26:01;;;;;;;;;0.00;0.00;;;;;11.74;98.36;100316.38;5055402;28;45430;-66
2023/01/11 02:28:33;;;;;;;;;0.00;0.00;;;;;11.75;97.89;100309.28;5055592;28;45496;-67
2023/01/11 02:31:20;;;;;;;;;0.00;0.00;;;;;11.76;97.91;100298.69;5055104;28;46392;-67
2023/01/11 02:33:52;;;;;;;;;0.00;0.00;;;;;11.78;97.98;100304.75;5055641;28;45473;-67
2023/01/11 02:36:37;;;;;;;;;0.00;0.00;;;;;11.79;97.76;100300.31;5056852;28;45324;-69
2023/01/11 02:39:29;;;;;;;;;5.00;5.00;;;;;11.82;97.45;100295.75;5054093;28;45217;-71
2023/01/11 02:45:07;;;;;;;;;0.00;0.00;;;;;11.84;97.49;100288.63;5055109;28;45347;-68
2023/01/11 02:47:50;;;;;;;;;0.00;0.00;;;;;11.88;97.23;100288.47;5055160;28;45437;-68
2023/01/11 02:50:33;;;;;;;;;0.00;0.00;;;;;11.89;97.31;100285.75;5055828;28;45424;-69
2023/01/11 02:53:20;;;;;;;;;0.00;0.00;;;;;11.92;96.77;100288.22;5056121;28;45311;-69
2023/01/11 02:55:50;;;;;;;;;0.00;0.00;;;;;11.95;96.70;100280.16;5053644;28;45698;-71
2023/01/11 02:58:18;;;;;;;;;0.00;0.00;;;;;11.96;96.80;100286.28;5055418;28;45288;-71
2023/01/11 03:00:45;;;;;;;;;0.00;0.00;;;;;11.98;96.48;100277.38;5056590;28;45344;-74
2023/01/11 03:03:17;;;;;;;;;0.00;0.00;;;;;11.99;96.79;100279.06;5055153;28;46405;-73
2023/01/11 03:05:56;;;;;;;;;0.00;0.00;;;;;11.99;96.52;100272.97;5055129;28;46514;-69
2023/01/11 03:08:22;;;;;;;;;0.00;0.00;;;;;12.03;96.45;100287.72;5055670;28;45477;-70
2023/01/11 03:10:47;;;;;;;;;0.00;0.00;;;;;12.05;96.49;100285.00;5058278;28;45327;-67
2023/01/11 03:13:39;;;;;;;;;0.00;0.00;;;;;12.04;96.40;100273.59;5058634;28;46074;-71
2023/01/11 03:16:23;;;;;;;;;0.00;0.00;;;;;12.07;95.74;100284.00;5058470;28;45330;-70
2023/01/11 03:19:34;;;;;;;;;0.00;0.00;;;;;12.08;96.17;100271.66;5058367;28;45248;-73
2023/01/11 03:22:05;;;;;;;;;0.00;0.00;;;;;12.10;95.78;100277.69;5057569;27;45506;-69
2023/01/11 03:24:48;;;;;;;;;0.00;0.00;;;;;12.10;95.86;100270.66;5058446;28;46293;-75
2023/01/11 03:27:28;;;;;;;;;0.00;0.00;;;;;12.12;95.38;100268.78;5058395;28;45375;-72
2023/01/11 03:30:02;;;;;;;;;0.00;0.00;;;;;12.15;95.69;100280.13;5058362;28;45350;-70
2023/01/11 03:32:49;;;;;;;;;0.00;0.00;;;;;12.15;95.36;100259.84;5058309;28;45378;-68
2023/01/11 03:36:00;;;;;;;;;0.00;0.00;;;;;12.15;95.51;100267.75;5058052;28;46520;-69
2023/01/11 03:38:53;;;;;;;;;0.00;0.00;;;;;12.17;95.67;100284.34;5057090;28;45342;-69
2023/01/11 03:41:24;;;;;;;;;0.00;0.00;;;;;12.16;95.64;100284.44;5058245;28;45320;-69
2023/01/11 03:43:54;;;;;;;;;0.00;0.00;;;;;12.11;96.01;100279.41;5073963;28;45351;-70
2023/01/11 03:46:35;;;;;;;;;0.00;0.00;;;;;12.17;96.08;100288.78;5057670;28;45747;-71
2023/01/11 03:49:06;;;;;;;;;0.00;0.00;;;;;12.15;96.11;100283.59;5056656;28;45512;-65
2023/01/11 03:51:38;;;;;;;;;0.00;0.00;;;;;12.13;96.30;100291.59;5072912;27;45639;-66
2023/01/11 03:54:07;;;;;;;;;0.00;0.00;;;;;12.13;96.59;100290.72;5057401;28;45174;-65
2023/01/11 03:56:43;;;;;;;;;0.00;0.00;;;;;12.11;97.04;100287.31;5056230;28;46400;-68
2023/01/11 03:59:09;;;;;;;;;0.00;0.00;;;;;12.10;97.39;100294.38;5057652;28;45488;-67
2023/01/11 04:01:36;;;;;;;;;0.00;0.00;;;;;12.06;97.20;100297.25;5057927;28;45455;-69
2023/01/11 04:04:01;;;;;;;;;0.00;0.00;;;;;12.04;97.60;100292.06;5057813;28;45540;-66
2023/01/11 04:06:27;;;;;;;;;0.00;0.00;;;;;12.02;97.53;100290.41;5056560;28;62078;-65
2023/01/11 04:08:52;;;;;;;;;0.00;0.00;;;;;12.05;97.84;100296.41;5055914;28;45204;-66
2023/01/11 04:11:17;;;;;;;;;0.00;0.00;;;;;12.03;97.57;100293.00;5057562;28;45386;-66
2023/01/11 04:13:42;;;;;;;;;0.00;0.00;;;;;12.04;97.95;100302.59;5058077;28;45489;-66
2023/01/11 04:16:08;;;;;;;;;0.00;0.00;;;;;12.03;97.88;100302.66;5054868;28;64019;-67
2023/01/11 04:18:33;;;;;;;;;0.00;0.00;;;;;12.01;97.63;100300.13;5057419;28;45321;-65
2023/01/11 04:20:58;;;;;;;;;0.00;0.00;;;;;12.03;97.70;100298.25;5056604;28;50699;-65
2023/01/11 04:23:24;;;;;;;;;0.00;0.00;;;;;12.03;98.26;100297.41;5057785;28;45186;-68
2023/01/11 04:25:49;;;;;;;;;0.00;0.00;;;;;11.98;97.78;100293.19;5056841;28;58877;-70
2023/01/11 04:28:14;;;;;;;;;0.00;0.00;;;;;12.00;98.02;100282.59;5055998;28;45324;-70
2023/01/11 04:30:40;;;;;;;;;0.00;0.00;;;;;12.01;98.04;100289.59;5057333;28;45292;-75
2023/01/11 04:33:05;;;;;;;;;0.00;0.00;;;;;12.01;98.05;100297.50;5057317;28;45253;-74
2023/01/11 04:35:30;;;;;;;;;0.00;0.00;;;;;11.96;98.02;100294.22;5056819;28;45251;-77
2023/01/11 04:37:56;;;;;;;;;0.00;0.00;;;;;12.00;97.97;100314.25;5057905;28;45405;-78
2023/01/11 04:40:23;;;;;;;;;0.00;0.00;;;;;11.93;97.71;100289.94;5060538;28;45355;-78
2023/01/11 04:42:48;;;;;;;;;0.00;0.00;;;;;11.99;97.98;100301.97;5055969;28;45547;-71
2023/01/11 04:45:14;;;;;;;;;0.00;0.00;;;;;12.01;97.98;100315.06;5057071;28;46602;-71
2023/01/11 04:47:39;;;;;;;;;0.00;0.00;;;;;11.97;98.08;100314.34;5056906;28;45408;-76
2023/01/11 04:50:05;;;;;;;;;0.00;0.00;;;;;11.99;98.01;100315.97;5056948;28;45363;-77
2023/01/11 04:52:30;;;;;;;;;0.00;0.00;;;;;12.01;97.73;100315.94;5057100;28;45457;-75
2023/01/11 04:54:56;;;;;;;;;0.00;0.00;;;;;12.03;97.37;100323.75;5056826;28;46032;-74
2023/01/11 04:57:21;;;;;;;;;0.00;0.00;;;;;11.97;97.33;100327.53;5072252;27;45382;-78
2023/01/11 04:59:47;;;;;;;;;0.00;0.00;;;;;11.96;97.62;100346.91;5057218;28;45227;-78
2023/01/11 05:02:14;;;;;;;;;0.00;0.00;;;;;11.97;98.43;100361.81;5057210;28;45676;-76
2023/01/11 05:04:39;;;;;;;;;0.00;0.00;;;;;11.89;98.58;100367.44;5072436;28;48291;-69
2023/01/11 05:07:06;;;;;;;;;0.00;0.00;;;;;11.77;98.02;100382.09;5056820;28;45314;-74
2023/01/11 05:09:31;;;;;;;;;0.00;0.00;;;;;11.63;97.53;100376.59;5057266;28;45416;-70
2023/01/11 05:11:56;;;;;;;;;0.00;0.00;;;;;11.59;97.43;100380.31;5057101;28;45545;-68
2023/01/11 05:14:22;;;;;;;;;0.00;0.00;;;;;11.50;97.66;100384.25;5056266;28;52855;-66
2023/01/11 05:16:47;;;;;;;;;0.00;0.00;;;;;11.39;97.45;100388.25;5057085;28;45300;-66
2023/01/11 05:19:12;;;;;;;;;0.00;0.00;;;;;11.39;97.52;100395.28;5056396;28;49590;-66
2023/01/11 05:21:39;;;;;;;;;0.00;0.00;;;;;11.30;97.69;100391.31;5055351;28;45648;-67
2023/01/11 05:24:11;;;;;;;;;0.00;0.00;;;;;11.30;98.34;100393.06;5056761;28;46192;-65
2023/01/11 05:26:38;;;;;;;;;0.00;0.00;;;;;11.27;99.45;100395.84;5056066;28;45489;-68
2023/01/11 05:29:06;;;;;;;;;0.00;0.00;;;;;11.24;99.40;100399.50;5058131;28;45443;-67
2023/01/11 05:31:33;;;;;;;;;0.00;0.00;;;;;11.22;100.00;100411.88;5055771;28;45312;-67
2023/01/11 05:33:59;;;;;;;;;0.00;0.00;;;;;11.18;99.78;100431.38;5055653;28;46136;-66
2023/01/11 05:36:26;;;;;;;;;1.75;1.75;;;;;11.16;99.28;100428.78;5054579;28;45760;-67
2023/01/11 05:38:53;;;;;;;;;2.50;2.50;;;;;11.05;99.74;100423.16;5056226;28;45351;-69
2023/01/11 05:41:21;;;;;;;;;1.00;1.00;;;;;10.95;100.00;100433.22;5056672;28;45578;-66
2023/01/11 05:46:35;;;;;;;;;3.00;3.00;;;;;10.75;100.00;100463.06;5055710;28;45469;-65
2023/01/11 05:49:01;;;;;;;;;2.00;2.00;;;;;10.65;100.00;100459.94;5056099;28;45367;-66
2023/01/11 05:51:29;;;;;;;;;1.25;1.00;;;;;10.63;100.00;100469.69;5071729;28;45671;-66
2023/01/11 05:53:58;;;;;;;;;2.00;2.00;;;;;10.62;100.00;100467.97;5056356;28;45459;-66
2023/01/11 05:56:24;;;;;;;;;1.25;1.25;;;;;10.59;100.00;100466.31;5056329;28;45289;-67
2023/01/11 05:58:50;;;;;;;;;2.00;2.00;;;;;10.57;100.00;100460.25;5057648;28;45187;-65
2023/01/11 06:01:18;;;;;;;;;2.75;2.75;;;;;10.54;100.00;100447.25;5055906;28;45520;-66
2023/01/11 06:03:44;;;;;;;;;2.00;2.00;;;;;10.58;100.00;100454.09;5055677;28;45367;-70
2023/01/11 06:06:10;;;;;;;;;2.00;2.00;;;;;10.58;100.00;100454.09;5055319;28;45383;-72
2023/01/11 06:08:35;;;;;;;;;1.00;1.00;;;;;10.59;100.00;100470.72;5055647;28;45409;-75
2023/01/11 06:11:00;;;;;;;;;1.00;1.00;;;;;10.56;100.00;100476.97;5055685;28;45354;-68
2023/01/11 06:13:26;;;;;;;;;1.00;1.00;;;;;10.55;100.00;100467.34;5055241;28;45430;-67
2023/01/11 06:16:00;;;;;;;;;2.00;1.25;;;;;10.52;100.00;100478.00;5055916;28;45292;-70
2023/01/11 06:18:27;;;;;;;;;1.00;1.00;;;;;10.47;100.00;100483.47;5057476;28;45367;-67
2023/01/11 06:20:54;;;;;;;;;1.00;1.00;;;;;10.45;100.00;100487.06;5057006;28;45293;-70
2023/01/11 06:23:20;;;;;;;;;1.50;1.00;;;;;10.40;100.00;100489.03;5054210;28;48288;-71
2023/01/11 06:25:46;;;;;;;;;0.25;0.25;;;;;10.39;100.00;100501.31;5055046;28;45360;-66
2023/01/11 06:28:12;;;;;;;;;2.00;1.00;;;;;10.37;100.00;100506.63;5055751;28;45362;-67
2023/01/11 06:30:38;;;;;;;;;1.50;1.00;;;;;10.35;100.00;100505.81;5056026;28;45382;-71
2023/01/11 06:33:06;;;;;;;;;0.50;0.50;;;;;10.31;99.77;100498.97;5054997;28;45932;-75
2023/01/11 06:35:32;;;;;;;;;3.00;2.00;;;;;10.28;100.00;100512.25;5055311;28;45318;-72
2023/01/11 06:37:58;;;;;;;;;1.00;1.00;;;;;10.33;100.00;100522.59;5054756;28;45256;-76
2023/01/11 06:40:23;;;;;;;;;2.00;1.00;;;;;10.30;99.90;100510.41;5055518;28;45333;-71
2023/01/11 06:42:48;;;;;;;;;2.00;2.00;;;;;10.28;99.84;100514.03;5054318;28;58545;-67
2023/01/11 06:45:14;;;;;;;;;1.00;1.00;;;;;10.31;99.60;100530.53;5065638;27;45230;-70
2023/01/11 06:47:39;;;;;;;;;1.00;1.00;;;;;10.32;99.30;100532.25;5059802;28;45334;-69
2023/01/11 06:50:05;;;;;;;;;2.25;2.25;;;;;10.32;99.46;100539.28;5058656;28;45410;-68
2023/01/11 06:52:30;;;;;;;;;4.75;4.25;;;;;10.29;99.81;100539.41;5058253;28;46050;-71
2023/01/11 06:54:55;;;;;;;;;6.00;6.00;;;;;10.32;99.65;100553.28;5052179;28;45165;-68
2023/01/11 06:57:21;;;;;;;;;1.50;1.50;;;;;10.25;99.59;100535.19;5038150;28;57124;-70
2023/01/11 06:59:46;;;;;;;;;2.25;2.00;;;;;10.29;99.53;100548.13;5038615;28;45631;-69
2023/01/11 07:02:11;;;;;;;;;1.50;1.50;;;;;10.19;99.80;100539.78;5053524;28;45989;-68
2023/01/11 07:04:37;;;;;;;;;4.25;4.25;;;;;10.32;100.00;100555.91;5058766;28;45378;-66
2023/01/11 07:07:02;;;;;;;;;7.75;6.50;;;;;10.36;99.69;100556.66;5058578;28;51782;-70
2023/01/11 07:09:27;;;;;;;;;3.25;3.25;;;;;10.33;99.29;100546.25;5059395;28;45300;-68
2023/01/11 07:11:53;;;;;;;;;2.75;2.75;;;;;10.37;99.36;100553.09;5067997;28;46959;-69
2023/01/11 07:14:19;;;;;;;;;2.00;2.00;;;;;10.41;98.90;100561.75;5036582;28;45344;-65
2023/01/11 07:16:46;;;;;;;;;1.00;1.00;;;;;10.41;99.27;100570.50;5038095;28;45355;-64
2023/01/11 07:19:11;;;;;;;;;4.75;4.75;;;;;10.41;98.91;100561.75;5038697;28;45507;-65
2023/01/11 07:21:37;;;;;;;;;6.00;6.00;;;;;10.30;98.59;100555.09;5071965;27;47369;-66
2023/01/11 07:24:03;;;;;;;;;3.00;3.00;;;;;10.34;98.37;100561.13;5038173;28;45252;-67
2023/01/11 07:26:28;;;;;;;;;4.50;4.50;;;;;10.34;98.90;100567.22;5070113;27;45342;-66
2023/01/11 07:28:54;;;;;;;;;4.00;3.00;;;;;10.33;98.22;100575.19;5045227;28;45588;-66
2023/01/11 07:31:19;;;;;;;;;4.00;4.00;;;;;10.23;98.48;100559.78;5059297;28;45298;-66
2023/01/11 07:33:45;;;;;;;;;2.25;2.00;;;;;10.23;98.59;100567.66;5059514;28;45228;-66
2023/01/11 07:36:10;;;;;;;;;2.75;2.75;;;;;10.24;98.22;100576.38;5058555;28;45480;-68
2023/01/11 07:38:35;;;;;;;;;3.50;3.50;;;;;10.23;98.00;100587.81;5057469;28;45823;-66
2023/01/11 07:43:10;;;;;;;;;2.25;2.25;;;;;10.23;98.47;100595.69;5057805;28;46052;-67
2023/01/11 07:43:46;;;;;;;;;4.00;4.00;;;;;10.19;97.99;100596.75;5057286;28;45337;-68
2023/01/11 07:46:11;;;;;;;;;2.00;2.00;;;;;10.19;97.86;100599.38;5064856;28;45412;-73
2023/01/11 07:48:36;;;;;;;;;3.50;3.50;;;;;10.18;98.22;100605.53;5049262;28;45335;-68
2023/01/11 07:51:02;;;;;;;;;1.50;1.50;;;;;10.17;97.79;100617.84;5056962;28;66941;-79
2023/01/11 07:53:27;;;;;;;;;2.75;2.25;;;;;10.16;97.88;100638.91;5040030;28;45395;-72
2023/01/11 07:55:55;;;;;;;;;2.00;2.00;;;;;10.11;97.81;100638.22;5053016;28;56776;-73
2023/01/11 07:58:21;;;;;;;;;2.50;2.50;;;;;10.12;97.18;100653.09;5057812;28;45613;-71
2023/01/11 08:00:46;;;;;;;;;3.00;3.00;;;;;10.05;96.95;100644.56;5062616;28;47139;-74
2023/01/11 08:03:12;;;;;;;;;3.75;3.75;;;;;10.07;97.24;100656.75;5056536;28;45421;-78
2023/01/11 08:05:38;;;;;;;;;6.00;4.00;;;;;10.08;97.41;100668.13;5056580;28;45404;-76
2023/01/11 08:08:04;;;;;;;;;4.50;4.50;;;;;10.08;97.16;100668.97;5056829;28;45362;-65
2023/01/11 08:10:29;;;;;;;;;3.00;3.00;;;;;10.09;97.19;100669.84;5055743;28;46261;-62
2023/01/11 08:15:41;;;;;;;;;2.00;2.00;;;;;10.08;96.21;100686.53;5056792;28;45333;-74
2023/01/11 08:18:07;;;;;;;;;3.25;3.25;;;;;10.06;95.51;100697.06;5058477;28;45259;-67
2023/01/11 08:20:33;;;;;;;;;3.75;3.75;;;;;10.01;95.73;100691.13;5055964;28;46285;-73
2023/01/11 08:23:05;;;;;;;;;2.75;2.75;;;;;10.05;95.35;100698.00;5057821;28;45366;-69
2023/01/11 08:25:31;;;;;;;;;3.75;3.75;;;;;10.04;95.49;100701.53;5057190;28;45247;-62
2023/01/11 08:28:02;;;;;;;;;2.50;2.50;;;;;10.02;94.77;100695.47;5057665;28;45438;-70
2023/01/11 08:30:28;;;;;;;;;3.25;3.25;;;;;10.04;95.15;100700.66;5057265;28;45501;-61
2023/01/11 08:32:56;;;;;;;;;3.25;2.75;;;;;10.01;94.93;100703.41;5056715;28;45225;-70
2023/01/11 08:35:21;;;;;;;;;2.25;2.25;;;;;9.98;94.98;100711.41;5056907;28;45249;-69
2023/01/11 08:37:50;;;;;;;;;15.50;14.25;;;;;10.02;95.00;100720.88;5058147;28;45315;-67
2023/01/11 08:40:15;;;;;;;;;5.00;4.00;;;;;9.99;94.76;100724.50;5056721;28;48385;-69
2023/01/11 08:42:44;;;;;;;;;3.50;3.25;;;;;10.03;94.58;100731.34;5056396;28;45461;-70
2023/01/11 08:45:09;;;;;;;;;3.50;3.50;;;;;10.03;94.08;100736.59;5075085;27;45338;-76
2023/01/11 08:47:35;;;;;;;;;3.25;2.25;;;;;10.02;94.03;100740.16;5059608;28;45309;-73
2023/01/11 08:50:00;;;;;;;;;3.75;3.75;;;;;9.98;94.24;100727.16;5059924;28;45419;-73
2023/01/11 08:52:25;;;;;;;;;3.75;3.75;;;;;9.97;94.38;100731.56;5058719;28;45360;-72
2023/01/11 08:54:51;;;;;;;;;3.25;3.25;;;;;9.97;94.25;100734.19;5059366;28;45339;-70
2023/01/11 08:57:16;;;;;;;;;2.75;2.75;;;;;9.99;94.58;100747.28;5057806;28;45351;-71
2023/01/11 08:59:41;;;;;;;;;3.75;3.75;;;;;9.93;94.39;100733.44;5056991;28;46039;-72
2023/01/11 09:02:08;;;;;;;;;2.75;2.75;;;;;9.98;94.21;100746.44;5056262;28;45331;-70
2023/01/11 09:04:33;;;;;;;;;2.25;2.25;;;;;10.00;93.84;100756.88;5056977;28;45309;-70
2023/01/11 09:07:00;;;;;;;;;2.50;2.50;;;;;10.01;93.65;100755.97;5055720;28;45273;-67
2023/01/11 09:09:25;;;;;;;;;4.50;4.50;;;;;10.02;93.90;100765.56;5056179;28;46260;-70
2023/01/11 09:11:55;;;;;;;;;2.75;2.75;;;;;10.02;93.29;100766.44;5055788;28;52839;-71
2023/01/11 09:14:22;;;;;;;;;3.00;3.00;;;;;10.03;93.30;100765.53;5056136;28;45441;-73
2023/01/11 09:16:47;;;;;;;;;10.25;10.25;;;;;10.12;93.57;100766.09;5055634;28;45466;-66
2023/01/11 09:19:13;;;;;;;;;4.75;4.75;;;;;10.17;93.01;100774.69;5057207;28;45321;-66
2023/01/11 09:21:38;;;;;;;;;4.00;4.00;;;;;10.19;92.17;100786.00;5056918;28;45469;-68
2023/01/11 09:24:04;;;;;;;;;6.75;6.75;;;;;10.22;92.46;100791.16;5056806;28;45394;-71
2023/01/11 09:26:29;;;;;;;;;5.75;5.75;;;;;10.25;91.92;100788.41;5057046;28;45299;-71
2023/01/11 09:28:55;;;;;;;;;3.00;3.00;;;;;10.26;91.27;100789.28;5055846;28;45391;-62
2023/01/11 09:31:20;;;;;;;;;2.00;2.00;;;;;10.25;90.98;100798.94;5056119;28;45342;-62
2023/01/11 09:33:46;;;;;;;;;3.00;3.00;;;;;10.25;90.14;100798.94;5056512;28;45404;-65
2023/01/11 09:36:13;;;;;;;;;4.00;4.00;;;;;10.23;89.61;100801.63;5057067;28;45442;-62
2023/01/11 09:38:39;;;;;;;;;3.25;3.25;;;;;10.20;89.75;100791.22;5056822;28;45625;-71
2023/01/11 09:41:22;;;;;;;;;5.75;5.75;;;;;10.24;89.12;100805.09;5056271;28;45335;-62
2023/01/11 09:43:55;;;;;;;;;7.00;7.00;;;;;10.23;89.03;100811.28;5056267;28;45283;-66
2023/01/11 09:46:22;;;;;;;;;3.75;3.00;;;;;10.17;88.11;100816.75;5056003;28;45350;-63
2023/01/11 09:48:53;;;;;;;;;4.00;4.00;;;;;10.09;87.73;100819.66;5054306;28;49122;-67
2023/01/11 09:51:23;;;;;;;;;3.25;3.25;;;;;10.13;87.76;100820.41;5055761;28;45435;-64
2023/01/11 09:53:51;;;;;;;;;4.00;4.00;;;;;10.07;87.52;100827.59;5057547;28;45349;-64
2023/01/11 09:56:24;;;;;;;;;2.00;2.00;;;;;9.98;87.03;100821.75;5056103;28;45407;-61
2023/01/11 09:59:26;;;;;;;;;4.50;4.50;;;;;9.96;86.98;100832.34;5055826;27;45635;-62
2023/01/11 10:02:04;;;;;;;;;3.50;3.50;;;;;9.87;86.42;100824.78;5057483;27;45255;-61
2023/01/11 10:04:40;;;;;;;;;1.00;1.00;;;;;9.92;85.83;100849.13;5056697;28;45248;-65
2023/01/11 10:07:13;;;;;;;;;3.00;3.00;;;;;9.90;86.29;100861.44;5057545;28;45260;-62
2023/01/11 10:10:07;;;;;;;;;2.25;2.25;;;;;9.86;85.97;100850.16;5056557;28;48213;-60
2023/01/11 10:12:44;;;;;;;;;2.00;2.00;;;;;9.83;85.32;100863.41;5055874;28;45252;-63
2023/01/11 10:15:31;;;;;;;;;2.75;2.75;;;;;9.81;85.77;100857.34;5054448;28;45266;-65
2023/01/11 10:18:05;;;;;;;;;1.50;1.50;;;;;9.84;85.18;100869.53;5054071;28;45266;-60
2023/01/11 10:20:38;;;;;;;;;3.00;3.00;;;;;9.84;85.12;100861.66;5055562;28;45977;-62
2023/01/11 10:23:13;;;;;;;;;3.75;3.75;;;;;9.84;84.84;100857.25;5055895;28;45221;-67
2023/01/11 10:25:50;;;;;;;;;4.75;4.75;;;;;9.83;85.43;100855.53;5055380;28;45177;-62
2023/01/11 10:28:21;;;;;;;;;3.75;3.75;;;;;9.87;85.58;100861.56;5056058;28;46003;-61
2023/01/11 10:42:18;;;;;;;;;3.00;3.00;;;;;9.93;83.87;100877.13;5055846;28;45284;-69
2023/01/11 10:44:56;;;;;;;;;5.00;4.00;;;;;9.93;84.14;100866.59;5056036;28;45404;-68
2023/01/11 10:47:27;;;;;;;;;4.75;4.50;;;;;10.00;83.95;100876.00;5055447;28;45414;-63
2023/01/11 10:49:55;;;;;;;;;3.00;3.00;;;;;10.02;83.57;100876.81;5056320;28;45304;-65
2023/01/11 10:52:40;;;;;;;;;5.00;5.00;;;;;10.03;83.02;100868.03;5056795;28;46273;-63
2023/01/11 10:55:23;;;;;;;;;5.75;4.00;;;;;10.08;83.52;100881.03;5056555;28;45157;-66
2023/01/11 10:58:23;;;;;;;;;2.50;2.50;;;;;10.11;82.93;100885.31;5071375;28;45345;-74
2023/01/11 11:01:11;;;;;;;;;2.75;2.75;;;;;10.05;83.14;100875.84;5056288;28;45453;-62
2023/01/11 11:04:19;;;;;;;;;4.25;4.00;;;;;10.19;82.08;100899.91;5071728;27;48005;-64
2023/01/11 11:07:00;;;;;;;;;5.00;5.00;;;;;10.26;81.79;100908.44;5055020;28;45398;-61
2023/01/11 11:09:40;;;;;;;;;6.50;5.50;;;;;10.28;81.15;100898.72;5054930;28;45358;-67
2023/01/11 11:12:18;;;;;;;;;3.25;3.25;;;;;10.30;80.94;100898.69;5056179;28;45387;-67
2023/01/11 11:15:01;;;;;;;;;5.25;5.25;;;;;10.33;80.60;100907.31;5069657;28;45947;-64
2023/01/11 11:17:32;;;;;;;;;4.00;4.00;;;;;10.40;80.85;100904.50;5056964;28;45433;-64
2023/01/11 11:19:57;;;;;;;;;5.75;5.75;;;;;10.44;80.77;100914.03;5055020;28;45490;-64
2023/01/11 11:22:23;;;;;;;;;7.00;7.00;;;;;10.48;80.67;100905.09;5055215;28;45606;-70
2023/01/11 11:24:57;;;;;;;;;3.50;3.25;;;;;10.45;80.09;100885.06;5054144;28;47337;-65
2023/01/11 11:27:40;;;;;;;;;5.00;5.00;;;;;10.58;79.86;100911.75;5055602;28;45483;-67
2023/01/11 11:30:10;;;;;;;;;4.75;4.75;;;;;10.63;79.31;100904.59;5056837;28;45365;-61
2023/01/11 11:32:38;;;;;;;;;4.00;4.00;;;;;10.66;78.64;100914.16;5058453;28;45182;-68
2023/01/11 11:35:06;;;;;;;;;4.75;4.75;;;;;10.66;78.36;100911.50;5058468;28;46054;-72
2023/01/11 11:37:41;;;;;;;;;5.00;5.00;;;;;10.66;77.69;100898.34;5058648;28;45252;-67
2023/01/11 11:40:29;;;;;;;;;11.25;10.75;;;;;10.74;77.76;100914.72;5058691;28;45275;-73
2023/01/11 11:43:18;;;;;;;;;4.75;4.50;;;;;10.59;77.91;100875.81;5060041;28;45362;-70
2023/01/11 11:45:56;;;;;;;;;8.50;8.00;;;;;10.84;77.81;100914.41;5060709;28;45393;-67
2023/01/11 11:48:23;;;;;;;;;5.25;5.25;;;;;10.90;76.68;100911.53;5057626;28;45417;-72
2023/01/11 11:50:50;;;;;;;;;5.75;5.25;;;;;10.96;76.80;100911.31;5057524;28;45469;-72
2023/01/11 11:53:36;;;;;;;;;6.25;6.25;;;;;11.05;76.12;100913.59;5055227;28;45334;-73
2023/01/11 11:56:40;;;;;;;;;5.00;5.00;;;;;11.10;76.03;100909.03;5054689;28;46046;-68
2023/01/11 11:59:08;;;;;;;;;4.00;4.00;;;;;11.17;75.59;100917.56;5055227;28;45347;-70
2023/01/11 12:01:39;;;;;;;;;4.00;4.00;;;;;11.22;73.87;100920.91;5057382;28;45318;-66
2023/01/11 12:04:30;;;;;;;;;3.00;3.00;;;;;11.25;73.77;100925.19;5056176;28;45262;-62
2023/01/11 12:07:14;;;;;;;;;4.50;4.50;;;;;11.27;73.81;100915.47;5057687;28;45379;-68